Time;durP1;ratioP1;P1;durP2;ratioP2;P2;SDS_P1;SDS_P2;PMS_P1;PMS_P2;Temp;Humidity;BMP_temperature;BMP_pressure;BME280_temperature;BME280_humidity;BME280_pressure;Samples;Min_cycle;Max_cycle;Signal;HPM_P1;HPM_P2
2021/06/18 00:00:25;;;;;;;;;;;;;;;26.65;43.68;100782.66;1759259;81;20212;-75
2021/06/18 00:02:51;;;;;;;;;;;;;;;26.56;43.87;100791.89;1759189;81;20298;-75
2021/06/18 00:05:17;;;;;;;;;;;;;;;26.90;43.17;100791.75;1759310;81;20163;-75
2021/06/18 00:07:45;;;;;;;;;;;;;;;26.80;43.34;100803.46;1758989;81;20138;-75
2021/06/18 00:10:12;;;;;;;;;;;;;;;26.98;42.92;100795.38;1756222;81;20185;-75
2021/06/18 00:12:38;;;;;;;;;;;;;;;26.92;42.91;100797.80;1754281;82;20155;-75
2021/06/18 00:15:06;;;;;;;;;;;;;;;26.79;43.11;100804.52;1754715;82;20724;-75
2021/06/18 00:17:32;;;;;;;;;;;;;;;26.53;43.53;100802.86;1754092;81;20166;-75
2021/06/18 00:19:58;;;;;;;;;;;;;;;26.49;43.67;100803.63;1754926;82;20145;-75
2021/06/18 00:22:24;;;;;;;;;;;;;;;26.44;43.71;100809.06;1754734;82;20181;-75
2021/06/18 00:24:49;;;;;;;;;;;;;;;26.44;43.70;100804.94;1755052;82;20172;-75
2021/06/18 00:27:15;;;;;;;;;;;;;;;26.42;43.73;100809.81;1754631;82;20143;-75
2021/06/18 00:29:41;;;;;;;;;;;;;;;26.38;43.80;100808.66;1755086;82;20387;-76
2021/06/18 00:32:07;;;;;;;;;;;;;;;26.36;43.87;100801.23;1754863;82;20208;-75
2021/06/18 00:34:33;;;;;;;;;;;;;;;26.33;43.82;100801.72;1755050;82;20196;-75
2021/06/18 00:36:59;;;;;;;;;;;;;;;26.28;43.86;100797.00;1754896;82;20188;-75
2021/06/18 00:39:25;;;;;;;;;;;;;;;26.23;43.97;100799.67;1754883;82;20141;-75
2021/06/18 00:41:51;;;;;;;;;;;;;;;26.20;44.16;100798.25;1755241;82;20183;-75
2021/06/18 00:44:18;;;;;;;;;;;;;;;26.18;44.16;100795.49;1733290;82;20409;-75
2021/06/18 00:46:45;;;;;;;;;;;;;;;26.18;44.14;100792.20;1754609;82;20143;-75
2021/06/18 00:49:11;;;;;;;;;;;;;;;26.19;44.15;100794.40;1756561;80;20201;-75
2021/06/18 00:51:38;;;;;;;;;;;;;;;26.20;44.07;100789.19;1735330;81;20147;-76
2021/06/18 00:54:06;;;;;;;;;;;;;;;26.20;43.91;100785.90;1758305;81;20391;-74
2021/06/18 00:56:33;;;;;;;;;;;;;;;26.21;43.92;100793.08;1759349;81;20124;-74
2021/06/18 00:59:00;;;;;;;;;;;;;;;26.21;43.98;100787.59;1759195;81;20143;-74
2021/06/18 01:01:26;;;;;;;;;;;;;;;26.18;44.04;100777.64;1759149;81;20130;-74
2021/06/18 01:03:53;;;;;;;;;;;;;;;26.15;44.11;100784.46;1759161;81;20148;-74
2021/06/18 01:06:22;;;;;;;;;;;;;;;26.13;44.04;100781.16;1758344;81;20161;-74
2021/06/18 01:08:54;;;;;;;;;;;;;;;26.10;44.02;100778.91;1733221;81;20161;-74
2021/06/18 01:11:36;;;;;;;;;;;;;;;26.10;44.19;100779.45;1758578;81;20131;-74
2021/06/18 01:14:09;;;;;;;;;;;;;;;26.08;44.21;100778.88;1758577;81;20146;-74
2021/06/18 01:16:48;;;;;;;;;;;;;;;26.04;44.31;100771.69;1758244;81;20471;-75
2021/06/18 01:19:23;;;;;;;;;;;;;;;26.03;44.14;100769.48;1758632;81;20138;-75
2021/06/18 01:21:58;;;;;;;;;;;;;;;26.05;44.08;100760.98;1758991;81;20130;-75
2021/06/18 01:25:01;;;;;;;;;;;;;;;26.05;44.08;100774.17;1759633;81;20166;-76
2021/06/18 01:27:34;;;;;;;;;;;;;;;26.04;43.93;100766.20;1759203;81;20448;-76
2021/06/18 01:30:06;;;;;;;;;;;;;;;26.00;43.98;100765.04;1759666;81;20143;-75
2021/06/18 01:32:35;;;;;;;;;;;;;;;25.98;44.03;100774.05;1753367;81;20451;-76
2021/06/18 01:35:01;;;;;;;;;;;;;;;25.96;44.01;100759.77;1744728;81;20189;-76
2021/06/18 01:37:29;;;;;;;;;;;;;;;25.91;44.18;100770.67;1775342;81;20166;-76
2021/06/18 01:39:58;;;;;;;;;;;;;;;25.86;44.08;100770.60;1775076;81;20130;-76
2021/06/18 01:42:24;;;;;;;;;;;;;;;25.83;44.09;100758.75;1775379;81;20130;-75
2021/06/18 01:44:50;;;;;;;;;;;;;;;25.79;44.23;100764.73;1749061;81;20149;-75
2021/06/18 01:47:16;;;;;;;;;;;;;;;25.78;44.29;100760.88;1774577;81;20215;-75
2021/06/18 01:49:41;;;;;;;;;;;;;;;25.79;44.21;100765.27;1774395;81;20457;-76
2021/06/18 01:52:08;;;;;;;;;;;;;;;25.76;44.31;100755.65;1747256;81;20211;-76
2021/06/18 01:54:34;;;;;;;;;;;;;;;25.77;44.32;100773.77;1773494;81;20196;-75
2021/06/18 01:57:00;;;;;;;;;;;;;;;25.79;44.29;100772.13;1773233;81;20177;-75
2021/06/18 01:59:28;;;;;;;;;;;;;;;25.77;44.26;100766.08;1773474;81;20198;-75
2021/06/18 02:01:54;;;;;;;;;;;;;;;25.79;44.27;100773.50;1774448;81;20150;-75
2021/06/18 02:04:20;;;;;;;;;;;;;;;25.82;44.23;100774.93;1773551;81;20180;-75
2021/06/18 02:06:47;;;;;;;;;;;;;;;25.82;44.27;100781.79;1774245;81;20188;-75
2021/06/18 02:09:14;;;;;;;;;;;;;;;25.83;44.09;100785.64;1774978;81;20142;-75
2021/06/18 02:11:41;;;;;;;;;;;;;;;25.84;43.99;100782.36;1774978;81;20142;-75
2021/06/18 02:14:10;;;;;;;;;;;;;;;25.83;44.08;100795.25;1775044;81;20430;-75
2021/06/18 02:16:38;;;;;;;;;;;;;;;25.80;44.02;100788.91;1775090;81;20130;-75
2021/06/18 02:19:04;;;;;;;;;;;;;;;25.77;44.01;100783.38;1774996;81;20162;-75
2021/06/18 02:21:30;;;;;;;;;;;;;;;25.76;44.13;100780.89;1749139;81;20183;-75
2021/06/18 02:23:57;;;;;;;;;;;;;;;25.75;43.98;100792.89;1774925;81;20152;-75
2021/06/18 02:26:25;;;;;;;;;;;;;;;25.73;44.13;100790.41;1775175;81;20165;-75
2021/06/18 02:28:52;;;;;;;;;;;;;;;25.74;44.18;100795.34;1774999;81;20165;-75
2021/06/18 02:31:20;;;;;;;;;;;;;;;25.73;44.17;100792.32;1775302;81;20154;-75
2021/06/18 02:33:46;;;;;;;;;;;;;;;25.75;44.20;100801.98;1775039;81;20166;-75
2021/06/18 02:36:12;;;;;;;;;;;;;;;25.76;44.22;100798.72;1774903;81;20450;-75
2021/06/18 02:38:38;;;;;;;;;;;;;;;25.77;44.16;100805.32;1775343;81;20235;-75
2021/06/18 02:41:04;;;;;;;;;;;;;;;25.76;44.15;100801.47;1775139;81;20150;-75
2021/06/18 02:43:30;;;;;;;;;;;;;;;25.76;44.15;100802.84;1775327;81;20138;-75
2021/06/18 02:45:56;;;;;;;;;;;;;;;25.75;44.18;100811.59;1774822;80;21937;-75
2021/06/18 02:48:28;;;;;;;;;;;;;;;25.73;44.20;100809.61;1775215;81;20188;-75
2021/06/18 02:51:04;;;;;;;;;;;;;;;25.72;44.42;100808.50;1774992;81;20125;-75
2021/06/18 02:53:51;;;;;;;;;;;;;;;25.71;44.35;100803.56;1775328;81;20135;-75
2021/06/18 02:56:30;;;;;;;;;;;;;;;25.72;44.39;100807.13;1774995;81;20130;-77
2021/06/18 02:59:19;;;;;;;;;;;;;;;25.71;44.35;100813.70;1774235;81;20317;-75
2021/06/18 03:01:45;;;;;;;;;;;;;;;25.71;44.43;100806.84;1773483;81;20375;-75
2021/06/18 03:04:18;;;;;;;;;;;;;;;25.72;44.42;100808.50;1773583;81;20233;-75
2021/06/18 03:06:48;;;;;;;;;;;;;;;25.72;44.34;100816.73;1773297;81;20176;-76
2021/06/18 03:09:14;;;;;;;;;;;;;;;25.75;44.33;100814.33;1773821;81;20471;-75
2021/06/18 03:11:41;;;;;;;;;;;;;;;25.79;44.55;100816.87;1773465;81;20187;-75
2021/06/18 03:14:10;;;;;;;;;;;;;;;25.86;44.47;100824.12;1774988;80;20155;-75
2021/06/18 03:16:37;;;;;;;;;;;;;;;25.86;44.44;100816.71;1774840;81;20138;-76
2021/06/18 03:19:05;;;;;;;;;;;;;;;25.89;44.21;100815.36;1775232;81;20142;-76
2021/06/18 03:21:33;;;;;;;;;;;;;;;25.91;44.02;100818.70;1749962;80;20174;-76
2021/06/18 03:24:00;;;;;;;;;;;;;;;25.90;44.05;100813.76;1773682;81;20172;-75
2021/06/18 03:26:27;;;;;;;;;;;;;;;25.92;43.98;100822.56;1748441;79;20186;-76
2021/06/18 03:28:54;;;;;;;;;;;;;;;25.88;44.09;100814.53;1771452;81;20477;-77
2021/06/18 03:31:21;;;;;;;;;;;;;;;25.87;44.18;100817.00;1797784;79;20152;-77
2021/06/18 03:33:46;;;;;;;;;;;;;;;25.87;44.25;100810.67;1803933;79;20205;-77
2021/06/18 03:36:14;;;;;;;;;;;;;;;25.82;44.22;100807.31;1803150;79;20102;-77
2021/06/18 03:38:42;;;;;;;;;;;;;;;25.78;44.48;100802.86;1803660;79;20096;-77
2021/06/18 03:41:08;;;;;;;;;;;;;;;25.77;44.56;100805.87;1804835;79;20174;-75
2021/06/18 03:43:35;;;;;;;;;;;;;;;25.76;44.72;100806.41;1803421;79;20159;-75
2021/06/18 03:46:03;;;;;;;;;;;;;;;25.76;44.81;100816.56;1798794;79;20202;-77
2021/06/18 03:48:29;;;;;;;;;;;;;;;25.75;44.77;100806.09;1803236;79;20175;-75
2021/06/18 03:50:56;;;;;;;;;;;;;;;25.78;44.94;100815.75;1802505;79;20185;-76
2021/06/18 03:53:22;;;;;;;;;;;;;;;25.79;45.10;100803.14;1778194;80;20169;-76
2021/06/18 03:55:48;;;;;;;;;;;;;;;25.80;45.03;100805.38;1776446;79;20176;-78
2021/06/18 03:58:17;;;;;;;;;;;;;;;25.80;45.03;100807.58;1776720;79;20447;-77
2021/06/18 04:00:43;;;;;;;;;;;;;;;25.82;44.95;100813.34;1802620;79;20163;-77
2021/06/18 04:03:09;;;;;;;;;;;;;;;25.79;44.85;100812.75;1801512;79;20244;-77
2021/06/18 04:05:35;;;;;;;;;;;;;;;25.80;44.98;100821.30;1776382;80;20329;-76
2021/06/18 04:08:01;;;;;;;;;;;;;;;25.80;44.91;100820.47;1738441;81;20176;-76
2021/06/18 04:10:28;;;;;;;;;;;;;;;25.81;44.90;100816.64;1750710;81;20171;-76
2021/06/18 04:12:54;;;;;;;;;;;;;;;25.82;44.90;100824.33;1764042;80;20627;-76
2021/06/18 04:15:22;;;;;;;;;;;;;;;25.83;45.01;100821.86;1770144;80;20117;-76
2021/06/18 04:17:48;;;;;;;;;;;;;;;25.85;44.86;100818.34;1779020;79;20187;-76
2021/06/18 04:20:15;;;;;;;;;;;;;;;25.86;44.75;100819.45;1774125;81;20096;-74
2021/06/18 04:22:41;;;;;;;;;;;;;;;25.91;44.78;100815.95;1772008;79;20474;-76
2021/06/18 04:25:08;;;;;;;;;;;;;;;25.94;44.69;100816.30;1745087;80;20139;-75
2021/06/18 04:27:36;;;;;;;;;;;;;;;25.99;44.58;100815.54;1756663;81;20102;-75
2021/06/18 04:30:06;;;;;;;;;;;;;;;26.04;44.67;100822.47;1756385;81;20170;-75
2021/06/18 04:32:33;;;;;;;;;;;;;;;26.11;44.70;100827.23;1752077;81;20114;-76
2021/06/18 04:34:59;;;;;;;;;;;;;;;26.16;44.59;100826.47;1751187;81;20472;-76
2021/06/18 04:37:27;;;;;;;;;;;;;;;26.25;44.70;100844.17;1746871;81;20099;-76
2021/06/18 04:39:54;;;;;;;;;;;;;;;26.29;44.43;100828.86;1748189;81;20539;-76
2021/06/18 04:42:20;;;;;;;;;;;;;;;26.35;44.54;100838.02;1769301;81;20519;-76
2021/06/18 04:44:46;;;;;;;;;;;;;;;26.39;44.62;100839.15;1767965;79;20129;-76
2021/06/18 04:47:12;;;;;;;;;;;;;;;26.44;44.58;100836.53;1738586;81;20133;-76
2021/06/18 04:49:38;;;;;;;;;;;;;;;26.44;44.58;100851.64;1770592;81;20158;-76
2021/06/18 04:52:06;;;;;;;;;;;;;;;26.49;44.66;100858.57;1770668;80;20099;-75
2021/06/18 04:54:33;;;;;;;;;;;;;;;26.52;44.35;100859.41;1770057;80;20145;-76
2021/06/18 04:56:59;;;;;;;;;;;;;;;26.57;44.32;100860.86;1738325;81;20149;-75
2021/06/18 04:59:25;;;;;;;;;;;;;;;26.60;44.33;100871.89;1769834;80;20579;-77
2021/06/18 05:01:51;;;;;;;;;;;;;;;26.63;44.25;100865.35;1764693;81;20126;-74
2021/06/18 05:04:29;;;;;;;;;;;;;;;26.68;44.22;100868.70;1762888;81;20204;-76
2021/06/18 05:06:52;;;;;;;;;;;;;;;26.72;44.15;100867.94;1738976;80;20220;-76
2021/06/18 05:09:18;;;;;;;;;;;;;;;26.79;44.20;100864.98;1773620;80;20210;-75
2021/06/18 05:11:43;;;;;;;;;;;;;;;26.85;44.00;100877.73;1777711;79;20167;-76
2021/06/18 05:14:10;;;;;;;;;;;;;;;26.88;44.20;100879.12;1767289;79;20150;-76
2021/06/18 05:16:38;;;;;;;;;;;;;;;26.93;44.18;100866.26;1774777;80;20229;-75
2021/06/18 05:19:06;;;;;;;;;;;;;;;27.00;44.38;100879.27;1768308;79;20173;-76
2021/06/18 05:21:32;;;;;;;;;;;;;;;27.09;44.01;100871.44;1771369;80;20404;-76
2021/06/18 05:23:58;;;;;;;;;;;;;;;27.13;43.93;100869.01;1769659;79;20145;-75
2021/06/18 05:26:24;;;;;;;;;;;;;;;27.18;44.02;100864.94;1769491;79;20216;-76
2021/06/18 05:28:49;;;;;;;;;;;;;;;27.21;44.05;100858.92;1763299;80;20164;-76
2021/06/18 05:31:20;;;;;;;;;;;;;;;27.27;43.96;100857.33;1771152;79;20191;-76
2021/06/18 05:33:46;;;;;;;;;;;;;;;27.46;43.57;100860.54;1767051;79;20178;-76
2021/06/18 05:36:12;;;;;;;;;;;;;;;27.41;43.53;100856.92;1765023;79;20148;-77
2021/06/18 05:38:39;;;;;;;;;;;;;;;27.38;43.45;100850.55;1767978;79;20171;-75
2021/06/18 05:41:10;;;;;;;;;;;;;;;27.38;43.52;100854.67;1756399;80;20180;-76
2021/06/18 05:43:34;;;;;;;;;;;;;;;27.42;43.49;100858.57;1753787;80;20158;-75
2021/06/18 05:46:01;;;;;;;;;;;;;;;27.46;43.33;100859.71;1753488;80;20182;-75
2021/06/18 05:48:28;;;;;;;;;;;;;;;27.48;43.22;100857.52;1734164;81;20846;-75
2021/06/18 05:50:56;;;;;;;;;;;;;;;27.51;43.33;100859.76;1743495;80;20174;-75
2021/06/18 05:53:25;;;;;;;;;;;;;;;27.53;43.18;100860.34;1741912;80;20179;-76
2021/06/18 05:55:57;;;;;;;;;;;;;;;27.55;43.01;100864.48;1734472;81;20156;-76
2021/06/18 05:58:26;;;;;;;;;;;;;;;27.56;43.08;100860.63;1735875;80;20493;-75
2021/06/18 06:00:52;;;;;;;;;;;;;;;27.59;43.14;100868.92;1754947;80;20215;-76
2021/06/18 06:03:19;;;;;;;;;;;;;;;27.59;43.00;100870.84;1742670;80;20446;-74
2021/06/18 06:05:45;;;;;;;;;;;;;;;27.58;43.14;100879.65;1743747;80;20170;-75
2021/06/18 06:08:12;;;;;;;;;;;;;;;27.74;43.07;100877.33;1771811;79;20215;-75
2021/06/18 06:10:40;;;;;;;;;;;;;;;27.61;43.39;100877.73;1742776;80;20556;-74
2021/06/18 06:13:06;;;;;;;;;;;;;;;27.59;43.61;100877.17;1768673;79;20168;-75
2021/06/18 06:15:33;;;;;;;;;;;;;;;27.60;43.58;100882.95;1744771;80;20146;-76
2021/06/18 06:17:59;;;;;;;;;;;;;;;27.60;43.49;100893.97;1768642;79;20209;-76
2021/06/18 06:20:25;;;;;;;;;;;;;;;27.60;43.32;100879.38;1767201;79;20171;-75
2021/06/18 06:22:53;;;;;;;;;;;;;;;27.60;43.35;100885.70;1722233;80;20155;-75
2021/06/18 06:25:19;;;;;;;;;;;;;;;27.61;43.58;100887.36;1746212;80;20233;-74
2021/06/18 06:27:45;;;;;;;;;;;;;;;27.65;43.54;100888.50;1746054;80;20420;-75
2021/06/18 06:30:12;;;;;;;;;;;;;;;27.66;43.67;100894.31;1774061;79;20187;-75
2021/06/18 06:32:38;;;;;;;;;;;;;;;27.68;43.41;100895.42;1769132;79;20192;-75
2021/06/18 06:35:06;;;;;;;;;;;;;;;27.69;43.49;100903.41;1763754;79;20777;-76
2021/06/18 06:37:34;;;;;;;;;;;;;;;27.67;43.24;100895.97;1754069;80;20592;-75
2021/06/18 06:40:00;;;;;;;;;;;;;;;27.66;43.32;100903.95;1759498;80;20191;-76
2021/06/18 06:42:26;;;;;;;;;;;;;;;27.64;43.34;100901.16;1766247;79;20218;-76
2021/06/18 06:44:53;;;;;;;;;;;;;;;27.66;43.29;100908.59;1740556;81;20211;-76
2021/06/18 06:47:19;;;;;;;;;;;;;;;27.66;43.29;100912.20;1755904;80;20133;-75
2021/06/18 06:49:46;;;;;;;;;;;;;;;27.61;43.56;100911.30;1757074;80;20263;-75
2021/06/18 06:52:12;;;;;;;;;;;;;;;27.59;43.63;100910.20;1763765;79;20532;-75
2021/06/18 06:54:38;;;;;;;;;;;;;;;27.57;43.89;100906.89;1765445;79;20188;-74
2021/06/18 06:57:04;;;;;;;;;;;;;;;27.61;43.95;100906.62;1764159;79;20897;-75
2021/06/18 06:59:30;;;;;;;;;;;;;;;27.65;44.01;100917.95;1758930;79;20174;-74
2021/06/18 07:01:56;;;;;;;;;;;;;;;27.68;43.91;100914.14;1762388;79;20263;-74
2021/06/18 07:04:23;;;;;;;;;;;;;;;27.80;43.71;100920.34;1760483;79;20150;-74
2021/06/18 07:06:51;;;;;;;;;;;;;;;27.75;43.58;100923.06;1760471;79;20189;-74
2021/06/18 07:09:17;;;;;;;;;;;;;;;27.74;43.55;100926.88;1760040;79;20187;-75
2021/06/18 07:11:43;;;;;;;;;;;;;;;27.79;43.46;100931.05;1762098;79;20147;-75
2021/06/18 07:14:09;;;;;;;;;;;;;;;27.76;43.54;100934.90;1763653;79;20526;-76
2021/06/18 07:16:37;;;;;;;;;;;;;;;27.76;43.72;100934.90;1749839;80;20418;-76
2021/06/18 07:19:03;;;;;;;;;;;;;;;27.76;43.73;100933.52;1767186;79;20158;-76
2021/06/18 07:21:32;;;;;;;;;;;;;;;27.76;44.01;100935.72;1763767;79;20178;-76
2021/06/18 07:23:58;;;;;;;;;;;;;;;27.74;44.14;100937.89;1766835;79;20520;-76
2021/06/18 07:26:28;;;;;;;;;;;;;;;27.77;44.30;100942.88;1764062;79;20359;-76
2021/06/18 07:28:52;;;;;;;;;;;;;;;27.76;44.27;100944.53;1767203;79;20205;-75
2021/06/18 07:31:18;;;;;;;;;;;;;;;27.72;44.55;100952.47;1741738;79;20202;-75
2021/06/18 07:33:44;;;;;;;;;;;;;;;27.71;44.57;100963.17;1767028;79;20210;-74
2021/06/18 07:36:10;;;;;;;;;;;;;;;27.69;44.57;100961.20;1763865;79;20207;-74
2021/06/18 07:38:45;;;;;;;;;;;;;;;27.71;44.62;100960.97;1763842;79;20217;-74
2021/06/18 07:41:13;;;;;;;;;;;;;;;27.71;44.75;100965.92;1741476;80;20126;-74
2021/06/18 07:43:39;;;;;;;;;;;;;;;27.74;44.94;100975.05;1730359;81;20561;-74
2021/06/18 07:46:05;;;;;;;;;;;;;;;27.76;44.96;100972.05;1753318;80;20171;-75
2021/06/18 07:48:36;;;;;;;;;;;;;;;27.77;44.74;100962.70;1755304;80;20182;-75
2021/06/18 07:51:07;;;;;;;;;;;;;;;27.73;44.70;100966.52;1752030;80;20185;-75
2021/06/18 07:53:38;;;;;;;;;;;;;;;27.72;44.56;100966.78;1753159;80;20430;-75
2021/06/18 07:56:23;;;;;;;;;;;;;;;;;;;;;
2021/06/18 07:58:44;;;;;;;;;;;;;;;27.73;44.57;100969.81;1762008;79;20274;-76
2021/06/18 08:01:11;;;;;;;;;;;;;;;27.70;44.81;100973.05;1769212;79;20153;-77
2021/06/18 08:03:40;;;;;;;;;;;;;;;27.66;45.06;100978.26;1767678;79;20512;-76
2021/06/18 08:06:08;;;;;;;;;;;;;;;27.62;45.29;100971.61;1758286;79;20202;-75
2021/06/18 08:08:36;;;;;;;;;;;;;;;27.61;45.00;100970.47;1768500;79;20185;-76
2021/06/18 08:11:17;;;;;;;;;;;;;;;27.61;44.71;100966.34;1764682;79;20182;-77
2021/06/18 08:13:42;;;;;;;;;;;;;;;27.61;44.76;100966.34;1765092;80;20672;-76
2021/06/18 08:16:08;;;;;;;;;;;;;;;27.62;44.50;100960.60;1737794;81;20216;-76
2021/06/18 08:18:38;;;;;;;;;;;;;;;27.63;44.45;100965.01;1767894;79;20136;-75
2021/06/18 08:21:06;;;;;;;;;;;;;;;27.65;44.47;100965.56;1752584;80;20454;-76
2021/06/18 08:23:32;;;;;;;;;;;;;;;27.66;44.38;100963.64;1753807;80;20684;-75
2021/06/18 08:26:01;;;;;;;;;;;;;;;27.65;44.58;100958.69;1756030;80;20156;-75
2021/06/18 08:28:28;;;;;;;;;;;;;;;27.65;44.85;100958.69;1758074;80;20172;-76
2021/06/18 08:30:55;;;;;;;;;;;;;;;27.66;45.21;100961.75;1755547;80;20243;-76
2021/06/18 08:33:28;;;;;;;;;;;;;;;27.68;45.58;100963.68;1756133;80;20200;-76
2021/06/18 08:36:02;;;;;;;;;;;;;;;27.70;45.88;100951.85;1783888;78;20211;-76
2021/06/18 08:38:29;;;;;;;;;;;;;;;27.76;46.05;100952.79;1744014;80;20229;-76
2021/06/18 08:40:56;;;;;;;;;;;;;;;27.80;45.69;100952.55;1768882;79;20182;-75
2021/06/18 08:43:38;;;;;;;;;;;;;;;27.84;45.34;100950.09;1764211;79;20185;-76
2021/06/18 08:50:25;;;;;;;;;;;;;;;27.93;45.24;100957.61;1672154;83;20222;-75
2021/06/18 08:52:40;;;;;;;;;;;;;;;28.00;45.47;100954.66;1735795;81;20171;-75
2021/06/18 08:55:07;;;;;;;;;;;;;;;28.03;45.45;100952.77;1744242;80;20187;-76
2021/06/18 08:58:05;;;;;;;;;;;;;;;28.05;45.42;100957.45;1762663;79;20146;-76
2021/06/18 09:00:47;;;;;;;;;;;;;;;28.09;45.35;100964.09;1756503;79;20208;-76
2021/06/18 09:04:11;;;;;;;;;;;;;;;28.12;44.80;100963.58;1637028;83;20143;-76
2021/06/18 09:06:50;;;;;;;;;;;;;;;28.11;44.49;100960.52;1662395;83;20214;-76
2021/06/18 09:09:27;;;;;;;;;;;;;;;28.12;44.38;100957.24;1648417;83;20179;-75
2021/06/18 09:12:02;;;;;;;;;;;;;;;28.13;44.59;100967.16;1673707;83;20181;-76
2021/06/18 09:14:36;;;;;;;;;;;;;;;28.13;44.48;100963.03;1669771;83;20206;-77
2021/06/18 09:20:00;;;;;;;;;;;;;;;28.21;44.64;100955.11;1586178;87;20207;-77
2021/06/18 09:22:37;;;;;;;;;;;;;;;28.30;44.89;100955.46;1620193;86;20113;-75
2021/06/18 09:25:12;;;;;;;;;;;;;;;28.40;44.99;100960.24;1618438;87;20193;-76
2021/06/18 09:27:39;;;;;;;;;;;;;;;28.49;44.66;100958.66;1644781;85;20271;-76
2021/06/18 09:30:18;;;;;;;;;;;;;;;28.53;44.85;100956.48;1646088;85;20185;-76
2021/06/18 09:32:59;;;;;;;;;;;;;;;28.58;44.67;100948.80;1623643;85;20209;-75
2021/06/18 09:35:26;;;;;;;;;;;;;;;28.60;44.40;100951.27;1645041;85;20569;-75
2021/06/18 09:37:54;;;;;;;;;;;;;;;28.62;44.46;100955.98;1645449;85;20159;-74
2021/06/18 09:40:22;;;;;;;;;;;;;;;28.64;44.44;100958.74;1644392;85;20629;-75
2021/06/18 09:42:55;;;;;;;;;;;;;;;28.67;44.55;100955.46;1620366;87;20195;-75
2021/06/18 09:45:33;;;;;;;;;;;;;;;28.71;44.41;100961.28;1652461;85;20227;-75
2021/06/18 09:48:13;;;;;;;;;;;;;;;28.72;44.04;100957.42;1622711;86;20212;-75
2021/06/18 09:50:44;;;;;;;;;;;;;;;28.73;44.06;100953.56;1634406;86;20797;-73
2021/06/18 09:53:23;;;;;;;;;;;;;;;28.70;44.21;100941.67;1645524;85;20192;-77
2021/06/18 09:56:06;;;;;;;;;;;;;;;28.67;44.42;100944.44;1622084;86;20549;-75
2021/06/18 09:58:39;;;;;;;;;;;;;;;28.65;44.49;100948.55;1640147;85;20175;-75
2021/06/18 10:01:28;;;;;;;;;;;;;;;28.60;44.37;100936.94;1647056;85;20190;-73
2021/06/18 10:04:07;;;;;;;;;;;;;;;28.59;44.48;100932.53;1641552;85;20214;-73
2021/06/18 10:06:34;;;;;;;;;;;;;;;28.62;44.53;100929.25;1642007;85;20223;-73
2021/06/18 10:09:03;;;;;;;;;;;;;;;28.65;44.70;100924.56;1643094;85;20211;-76
2021/06/18 10:11:30;;;;;;;;;;;;;;;28.68;44.70;100936.99;1645015;85;20163;-75
2021/06/18 10:13:57;;;;;;;;;;;;;;;28.69;44.68;100930.38;1644968;85;20519;-76
2021/06/18 10:16:26;;;;;;;;;;;;;;;28.73;44.86;100937.02;1621614;86;20168;-75
2021/06/18 10:18:56;;;;;;;;;;;;;;;28.77;45.17;100928.50;1643242;85;20150;-75
2021/06/18 10:21:22;;;;;;;;;;;;;;;28.81;44.98;100943.41;1642586;85;20217;-76
2021/06/18 10:23:49;;;;;;;;;;;;;;;28.85;44.75;100938.20;1647298;85;20168;-76
2021/06/18 10:26:15;;;;;;;;;;;;;;;28.86;44.59;100937.92;1627973;85;20412;-75
2021/06/18 10:28:54;;;;;;;;;;;;;;;28.87;44.47;100945.08;1624239;87;20163;-74
2021/06/18 10:31:26;;;;;;;;;;;;;;;28.89;44.25;100951.70;1617680;87;20142;-75
2021/06/18 10:34:15;;;;;;;;;;;;;;;28.89;44.19;100950.31;1658157;84;20153;-76
2021/06/18 10:36:40;;;;;;;;;;;;;;;28.87;44.31;100952.53;1619922;87;20426;-75
2021/06/18 10:39:14;;;;;;;;;;;;;;;28.85;44.27;100947.84;1578076;87;20237;-76
2021/06/18 10:41:47;;;;;;;;;;;;;;;28.85;44.70;100956.12;1620247;87;20173;-76
2021/06/18 10:44:29;;;;;;;;;;;;;;;28.89;44.76;100955.83;1636250;86;20123;-75
2021/06/18 10:46:55;;;;;;;;;;;;;;;28.91;44.80;100960.00;1571356;85;20172;-74
2021/06/18 10:49:21;;;;;;;;;;;;;;;28.96;44.74;100955.09;1648106;85;21276;-75
2021/06/18 10:51:49;;;;;;;;;;;;;;;28.99;44.78;100952.63;1641712;85;20159;-74
2021/06/18 10:54:29;;;;;;;;;;;;;;;29.00;45.04;100956.21;1651255;85;20167;-73
2021/06/18 10:56:57;;;;;;;;;;;;;;;28.99;45.02;100954.56;1621077;87;20182;-75
2021/06/18 10:59:35;;;;;;;;;;;;;;;28.99;45.17;100955.94;1652788;85;20178;-76
2021/06/18 11:02:05;;;;;;;;;;;;;;;28.99;45.19;100958.70;1649072;85;20163;-76
2021/06/18 11:04:42;;;;;;;;;;;;;;;28.98;45.32;100966.14;1645597;85;20191;-78
2021/06/18 11:07:30;;;;;;;;;;;;;;;28.98;45.49;100959.80;1650032;85;20149;-78
2021/06/18 11:10:12;;;;;;;;;;;;;;;28.96;45.52;100960.60;1616346;85;20250;-77
2021/06/18 11:12:55;;;;;;;;;;;;;;;28.96;45.83;100957.30;1651669;85;20167;-76
2021/06/18 11:15:24;;;;;;;;;;;;;;;28.94;46.12;100961.41;1645760;85;20170;-77
2021/06/18 11:18:19;;;;;;;;;;;;;;;28.91;46.39;100959.17;1645358;85;20159;-76
2021/06/18 11:20:47;;;;;;;;;;;;;;;28.86;46.82;100950.33;1652559;85;20348;-77
2021/06/18 11:23:22;;;;;;;;;;;;;;;28.85;46.75;100959.70;1658132;85;20150;-76
2021/06/18 11:26:09;;;;;;;;;;;;;;;28.86;46.60;100959.14;1651115;85;20229;-76
2021/06/18 11:28:43;;;;;;;;;;;;;;;28.89;46.41;100955.83;1653954;85;20390;-77
2021/06/18 11:31:16;;;;;;;;;;;;;;;28.88;46.16;100955.01;1625005;85;20153;-78
2021/06/18 11:33:50;;;;;;;;;;;;;;;28.90;46.06;100967.17;1649312;85;20154;-77
2021/06/18 11:36:23;;;;;;;;;;;;;;;28.90;46.00;100958.34;1657377;85;20144;-78
2021/06/18 11:38:57;;;;;;;;;;;;;;;28.91;45.88;100955.86;1652046;85;20153;-76
2021/06/18 11:41:27;;;;;;;;;;;;;;;28.92;45.89;100953.93;1651839;85;20569;-77
2021/06/18 11:43:54;;;;;;;;;;;;;;;28.90;46.06;100953.38;1648965;85;20176;-77
2021/06/18 11:46:22;;;;;;;;;;;;;;;28.90;46.07;100960.27;1654621;85;20167;-78
2021/06/18 11:48:48;;;;;;;;;;;;;;;28.89;46.22;100954.45;1649880;85;20157;-79
2021/06/18 11:51:25;;;;;;;;;;;;;;;28.89;46.18;100955.31;1650545;85;20102;-77
2021/06/18 11:53:51;;;;;;;;;;;;;;;28.90;46.02;100957.52;1659554;85;20577;-76
2021/06/18 11:56:17;;;;;;;;;;;;;;;28.88;46.15;100954.18;1654325;85;20183;-76
2021/06/18 11:58:44;;;;;;;;;;;;;;;28.87;46.36;100951.15;1649173;85;20700;-76
2021/06/18 12:01:19;;;;;;;;;;;;;;;28.89;46.56;100951.17;1653195;85;20178;-76
2021/06/18 12:03:46;;;;;;;;;;;;;;;28.96;46.75;100939.37;1657523;85;20167;-76
2021/06/18 12:06:21;;;;;;;;;;;;;;;28.99;46.67;100951.80;1650675;85;20181;-76
2021/06/18 12:09:16;;;;;;;;;;;;;;;28.96;46.52;100946.27;1654334;85;20171;-78
2021/06/18 12:11:47;;;;;;;;;;;;;;;28.97;46.62;100940.19;1671560;84;20191;-76
2021/06/18 12:14:15;;;;;;;;;;;;;;;29.03;46.71;100944.66;1651957;85;20162;-77
2021/06/18 12:16:46;;;;;;;;;;;;;;;29.02;46.60;100940.21;1659876;85;20492;-77
2021/06/18 12:19:29;;;;;;;;;;;;;;;29.03;46.50;100939.14;1649769;85;20177;-76
2021/06/18 12:22:02;;;;;;;;;;;;;;;29.05;46.57;100939.69;1656186;85;20248;-77
2021/06/18 12:24:43;;;;;;;;;;;;;;;29.04;46.49;100943.55;1656670;85;20158;-77
2021/06/18 12:27:16;;;;;;;;;;;;;;;29.02;46.72;100940.21;1650428;85;20172;-78
2021/06/18 12:29:52;;;;;;;;;;;;;;;29.00;47.15;100941.87;1652621;85;20196;-77
2021/06/18 12:32:15;;;;;;;;;;;;;;;29.01;47.29;100949.59;1652598;85;20181;-77
2021/06/18 12:34:48;;;;;;;;;;;;;;;29.01;47.14;100959.24;1654209;85;20565;-77
2021/06/18 12:37:15;;;;;;;;;;;;;;;28.95;47.13;100949.27;1648506;86;20146;-77
2021/06/18 12:39:54;;;;;;;;;;;;;;;28.94;47.03;100947.61;1654986;86;20163;-78
2021/06/18 12:42:27;;;;;;;;;;;;;;;28.94;46.48;100948.99;1651796;85;20173;-76
2021/06/18 12:45:15;;;;;;;;;;;;;;;28.92;46.19;100952.55;1655319;85;20188;-75
2021/06/18 12:47:46;;;;;;;;;;;;;;;28.90;46.19;100952.83;1649203;85;20162;-75
2021/06/18 12:50:31;;;;;;;;;;;;;;;28.89;46.09;100951.70;1656751;85;20147;-76
2021/06/18 12:53:00;;;;;;;;;;;;;;;28.86;45.85;100952.25;1649488;85;20171;-76
2021/06/18 12:55:29;;;;;;;;;;;;;;;28.82;45.97;100959.67;1653495;84;20161;-75
2021/06/18 12:58:04;;;;;;;;;;;;;;;28.78;46.09;100962.68;1654035;85;20181;-75